FOON

M'Vengue El Hadj Omar Bongo Ondimba International Airport

Franceville, Gabon
METAR FOON 161800Z 14006KT 8000 OVC020 24/22 Q1015
Observed Flight Rules
Jul-16 @ 18:00 UTC (2 hours ago) Marginal Visual Flight Rules
Wind Visibility Clouds
140° at 6 knots 7,998 meters
  • Overcast at 2,000' AGL
Temperatures Readings
Current 24°C / 75°F
Dewpoint 22°C / 72°F
Humidity 89%
Altimeter 29.97" Hg
Pressure 1015 hPa
Elevation 441
METAR FOON 161800Z 14006KT 8000 OVC020 24/22 Q1015
Observed Flight Rules
Jul-16 @ 18:00 UTC
(2 hours ago)
MVFR
Wind Visibility
140° at 6 knots 7,998 meters
Clouds
  • Overcast at 2,000' AGL
Temperature Dewpoint
24°C / 75°F 22°C / 72°F
Humidity Altimeter Pressure
89% 29.97" Hg 1015 hPa